Time;durP1;ratioP1;P1;durP2;ratioP2;P2;SDS_P1;SDS_P2;PMS_P1;PMS_P2;Temp;Humidity;BMP_temperature;BMP_pressure;BME280_temperature;BME280_humidity;BME280_pressure;Samples;Min_cycle;Max_cycle;Signal;HPM_P1;HPM_P2
2023/09/23 00:02:11;;;;;;;0.20;0.20;;;;;;;15.61;57.89;100596.94;5083967;28;20040;-68
2023/09/23 00:04:38;;;;;;;0.20;0.20;;;;;;;15.54;58.42;100590.94;5049553;28;20494;-67
2023/09/23 00:07:04;;;;;;;0.20;0.20;;;;;;;15.42;58.88;100594.88;5081708;28;20472;-69
2023/09/23 00:09:31;;;;;;;0.20;0.20;;;;;;;15.42;59.36;100594.06;5082536;28;20135;-68
2023/09/23 00:11:59;;;;;;;0.20;0.20;;;;;;;15.38;59.29;100602.09;5083300;28;20115;-70
2023/09/23 00:14:26;;;;;;;0.20;0.20;;;;;;;15.31;59.28;100591.38;5048998;28;20407;-68
2023/09/23 00:16:54;;;;;;;0.20;0.20;;;;;;;15.25;59.73;100595.31;5083283;28;20067;-69
2023/09/23 00:19:19;;;;;;;;;;;;;;;15.26;59.98;100596.09;5082986;28;20619;-70
2023/09/23 00:21:48;;;;;;;0.20;0.20;;;;;;;15.24;59.59;100603.84;5049705;28;19924;-68
2023/09/23 00:24:15;;;;;;;0.20;0.20;;;;;;;15.22;59.95;100608.81;5085278;28;20068;-70
2023/09/23 00:26:43;;;;;;;0.30;0.30;;;;;;;15.21;60.09;100598.91;5064677;28;20040;-67
2023/09/23 00:29:11;;;;;;;0.20;0.20;;;;;;;15.18;60.19;100589.28;5083115;28;20056;-70
2023/09/23 00:31:37;;;;;;;0.20;0.20;;;;;;;15.21;60.06;100599.72;5084755;28;20531;-70
2023/09/23 00:34:05;;;;;;;0.20;0.20;;;;;;;15.20;60.09;100600.03;5083220;28;20044;-68
2023/09/23 00:36:31;;;;;;;0.20;0.20;;;;;;;15.14;60.02;100591.81;5081803;28;20055;-68
2023/09/23 00:38:58;;;;;;;0.20;0.20;;;;;;;15.13;60.32;100600.34;5050028;28;20423;-68
2023/09/23 00:41:25;;;;;;;0.20;0.20;;;;;;;15.10;60.47;100600.91;5081472;28;20600;-69
2023/09/23 00:43:52;;;;;;;0.20;0.20;;;;;;;15.05;61.35;100596.25;5079617;28;20144;-69
2023/09/23 00:46:22;;;;;;;0.20;0.20;;;;;;;14.99;61.19;100595.47;5065149;28;20059;-68
2023/09/23 00:48:50;;;;;;;0.20;0.20;;;;;;;14.99;61.40;100600.97;5067679;28;20055;-69
2023/09/23 00:51:21;;;;;;;0.20;0.20;;;;;;;14.93;61.87;100602.13;5049255;28;20052;-69
2023/09/23 00:53:50;;;;;;;0.20;0.20;;;;;;;14.89;61.81;100604.63;5063577;28;20039;-69
2023/09/23 00:56:20;;;;;;;0.20;0.20;;;;;;;14.85;61.92;100597.22;5048375;28;20052;-69
2023/09/23 00:58:50;;;;;;;0.20;0.20;;;;;;;14.81;62.08;100594.19;5085596;28;20131;-69
2023/09/23 01:01:17;;;;;;;0.20;0.20;;;;;;;14.79;62.34;100596.41;5032363;28;20055;-69
2023/09/23 01:03:44;;;;;;;0.20;0.20;;;;;;;14.74;62.45;100583.50;5064584;28;20097;-70
2023/09/23 01:06:16;;;;;;;0.20;0.20;;;;;;;14.79;62.49;100587.34;5081309;28;20337;-69
2023/09/23 01:08:45;;;;;;;0.20;0.20;;;;;;;14.80;62.45;100591.75;5082858;28;20430;-68
2023/09/23 01:11:12;;;;;;;0.20;0.20;;;;;;;14.77;62.32;100587.63;5059390;28;20557;-67
2023/09/23 01:13:38;;;;;;;0.20;0.20;;;;;;;14.74;62.30;100589.00;5081932;28;20530;-70
2023/09/23 01:16:12;;;;;;;0.20;0.20;;;;;;;14.72;62.42;100590.41;5063978;28;20864;-70
2023/09/23 01:18:39;;;;;;;0.20;0.20;;;;;;;14.70;62.49;100595.34;5056986;28;20127;-71
2023/09/23 01:21:08;;;;;;;0.10;0.10;;;;;;;14.63;62.68;100589.31;5083324;28;20052;-68
2023/09/23 01:23:36;;;;;;;0.20;0.20;;;;;;;14.61;62.91;100595.13;5030953;28;20048;-69
2023/09/23 01:26:04;;;;;;;0.20;0.20;;;;;;;14.63;63.13;100598.41;5083187;28;20142;-69
2023/09/23 01:28:31;;;;;;;0.20;0.20;;;;;;;14.61;63.12;100592.38;5064219;28;20056;-69
2023/09/23 01:30:59;;;;;;;0.20;0.20;;;;;;;14.59;63.06;100592.63;5062793;28;20417;-70
2023/09/23 01:33:27;;;;;;;0.20;0.20;;;;;;;14.54;63.07;100592.66;5064104;28;20121;-68
2023/09/23 01:35:57;;;;;;;0.20;0.20;;;;;;;14.53;63.33;100598.44;5080576;28;20577;-70
2023/09/23 01:38:24;;;;;;;0.20;0.20;;;;;;;14.50;63.38;100594.31;5077892;28;20055;-70
2023/09/23 01:40:53;;;;;;;0.20;0.20;;;;;;;14.46;63.58;100587.75;5062711;28;20055;-69
2023/09/23 01:43:19;;;;;;;0.20;0.20;;;;;;;14.42;63.96;100590.22;5080591;28;20043;-70
2023/09/23 01:45:45;;;;;;;0.20;0.20;;;;;;;14.41;64.10;100591.31;5063018;28;20293;-68
2023/09/23 01:48:15;;;;;;;0.20;0.20;;;;;;;14.35;64.10;100595.22;5047659;28;20051;-69
2023/09/23 01:50:41;;;;;;;0.23;0.23;;;;;;;14.36;63.71;100593.28;5063410;28;20098;-68
2023/09/23 01:53:08;;;;;;;0.20;0.20;;;;;;;14.34;63.49;100590.81;5080961;28;20804;-70
2023/09/23 01:55:35;;;;;;;0.20;0.20;;;;;;;14.29;63.90;100588.91;5049866;28;20143;-70
2023/09/23 01:58:03;;;;;;;0.20;0.20;;;;;;;14.29;64.19;100596.34;5045584;28;20052;-69
2023/09/23 02:00:38;;;;;;;0.20;0.20;;;;;;;14.29;64.35;100604.59;5067742;28;20048;-70
2023/09/23 02:03:18;;;;;;;0.20;0.20;;;;;;;14.25;64.37;100609.81;5035781;28;20040;-68
2023/09/23 02:05:58;;;;;;;0.20;0.20;;;;;;;14.21;64.60;100605.16;5026153;28;20053;-69
2023/09/23 02:08:24;;;;;;;0.20;0.20;;;;;;;14.16;64.81;100600.50;5060911;28;20048;-69
2023/09/23 02:10:51;;;;;;;0.20;0.20;;;;;;;14.12;65.22;100602.97;5047721;28;20044;-67
2023/09/23 02:13:20;;;;;;;0.20;0.20;;;;;;;14.11;64.99;100603.25;5064076;28;20055;-69
2023/09/23 02:15:47;;;;;;;0.15;0.15;;;;;;;14.07;65.28;100597.50;5060412;28;20060;-68
2023/09/23 02:18:14;;;;;;;0.20;0.20;;;;;;;14.08;65.46;100598.34;5084275;28;20048;-69
2023/09/23 02:20:40;;;;;;;0.20;0.20;;;;;;;14.07;65.44;100604.94;5063091;28;20056;-69
2023/09/23 02:23:07;;;;;;;0.20;0.20;;;;;;;14.03;65.38;100601.91;5063460;28;20052;-67
2023/09/23 02:25:33;;;;;;;0.20;0.20;;;;;;;13.98;65.73;100607.44;5059992;28;20475;-70
2023/09/23 02:27:59;;;;;;;0.20;0.20;;;;;;;13.93;65.76;100608.25;5059448;28;20529;-69
2023/09/23 02:30:27;;;;;;;0.20;0.20;;;;;;;13.91;66.10;100607.72;5060668;28;20060;-69
2023/09/23 02:32:53;;;;;;;0.20;0.20;;;;;;;13.90;66.15;100608.81;5060459;28;20629;-69
2023/09/23 02:35:20;;;;;;;0.20;0.20;;;;;;;13.86;66.43;100610.44;5062701;28;20103;-70
2023/09/23 02:37:48;;;;;;;0.20;0.20;;;;;;;13.81;66.50;100604.97;5068094;28;20048;-69
2023/09/23 02:40:14;;;;;;;0.15;0.15;;;;;;;13.74;67.08;100614.34;5068052;28;20063;-69
2023/09/23 02:42:42;;;;;;;0.20;0.20;;;;;;;13.62;67.25;100611.03;5065947;28;20044;-70
2023/09/23 02:45:09;;;;;;;;;;;;;;;13.65;67.67;100620.63;5068213;28;20062;-70
2023/09/23 02:47:37;;;;;;;0.20;0.20;;;;;;;13.42;67.67;100590.66;5062344;28;20039;-69
2023/09/23 02:50:09;;;;;;;0.20;0.20;;;;;;;13.57;67.64;100613.78;5064900;28;20044;-69
2023/09/23 02:52:36;;;;;;;0.20;0.20;;;;;;;13.55;68.11;100608.56;5035204;28;20044;-70
2023/09/23 02:55:03;;;;;;;;;;;;;;;13.52;68.23;100614.63;5062643;28;20102;-68
2023/09/23 02:57:30;;;;;;;0.10;0.10;;;;;;;13.48;67.98;100608.00;5063739;28;20027;-68
2023/09/23 02:59:59;;;;;;;0.10;0.10;;;;;;;13.46;68.13;100618.44;5026452;28;20618;-69
2023/09/23 03:02:27;;;;;;;0.20;0.20;;;;;;;13.45;68.16;100614.06;5067205;28;20451;-69
2023/09/23 03:05:00;;;;;;;0.20;0.20;;;;;;;13.27;68.48;100585.19;5061367;28;20048;-70
2023/09/23 03:07:32;;;;;;;0.20;0.20;;;;;;;13.45;68.27;100611.31;5059183;28;20128;-69
2023/09/23 03:10:01;;;;;;;0.20;0.20;;;;;;;13.42;68.38;100606.34;5063033;28;20051;-69
2023/09/23 03:12:27;;;;;;;0.20;0.20;;;;;;;13.40;68.82;100611.28;5059342;28;20055;-69
2023/09/23 03:14:53;;;;;;;0.20;0.20;;;;;;;13.39;68.68;100610.44;5046082;28;20063;-70
2023/09/23 03:17:22;;;;;;;0.20;0.20;;;;;;;13.41;68.83;100619.22;5064870;28;20143;-69
2023/09/23 03:19:50;;;;;;;0.20;0.20;;;;;;;13.41;69.05;100615.69;5063209;28;20550;-69
2023/09/23 03:22:21;;;;;;;0.20;0.20;;;;;;;13.39;69.22;100612.38;5063367;28;20072;-70
2023/09/23 03:24:48;;;;;;;0.30;0.30;;;;;;;13.37;69.07;100620.88;5064555;28;21099;-71
2023/09/23 03:27:15;;;;;;;0.20;0.20;;;;;;;13.35;69.19;100620.34;5063065;28;20052;-68
2023/09/23 03:29:41;;;;;;;0.20;0.20;;;;;;;13.37;69.02;100617.31;5046119;28;20048;-69
2023/09/23 03:32:07;;;;;;;0.20;0.20;;;;;;;13.37;68.88;100612.66;5045411;28;20064;-68
2023/09/23 03:34:37;;;;;;;0.20;0.20;;;;;;;13.41;68.53;100618.41;5060016;28;20811;-70
2023/09/23 03:37:04;;;;;;;0.30;0.30;;;;;;;13.43;68.52;100625.34;5047110;28;20078;-70
2023/09/23 03:39:32;;;;;;;0.20;0.20;;;;;;;13.44;68.64;100621.47;5048786;28;20489;-68
2023/09/23 03:41:58;;;;;;;0.20;0.20;;;;;;;13.44;68.60;100626.97;5064888;28;20044;-68
2023/09/23 03:44:24;;;;;;;0.20;0.20;;;;;;;13.46;68.30;100619.28;5062715;28;20053;-68
2023/09/23 03:46:52;;;;;;;0.20;0.20;;;;;;;13.50;68.44;100627.78;5063336;28;20567;-68
2023/09/23 03:49:18;;;;;;;0.20;0.20;;;;;;;13.48;68.46;100629.97;5060506;28;20125;-69
2023/09/23 03:51:44;;;;;;;0.20;0.20;;;;;;;13.47;68.24;100637.41;5061722;28;20086;-70
2023/09/23 03:54:11;;;;;;;0.20;0.20;;;;;;;13.48;68.28;100632.72;5064072;28;20137;-70
2023/09/23 03:56:41;;;;;;;0.20;0.20;;;;;;;13.52;68.27;100628.34;5061296;28;20415;-70
2023/09/23 03:59:07;;;;;;;0.20;0.20;;;;;;;13.57;68.62;100639.34;5062895;28;20083;-70
2023/09/23 04:01:36;;;;;;;0.20;0.20;;;;;;;13.63;68.46;100636.56;5060402;28;20139;-70
2023/09/23 04:04:03;;;;;;;0.20;0.20;;;;;;;13.64;68.00;100636.31;5059586;28;20047;-70
2023/09/23 04:06:29;;;;;;;0.20;0.20;;;;;;;13.70;68.09;100643.44;5064166;28;20056;-70
2023/09/23 04:08:58;;;;;;;0.20;0.20;;;;;;;13.74;67.89;100639.06;5064579;28;20059;-70
2023/09/23 04:11:27;;;;;;;0.20;0.20;;;;;;;13.83;67.63;100635.75;5059723;28;20530;-69
2023/09/23 04:13:54;;;;;;;0.20;0.20;;;;;;;13.83;67.62;100636.59;5063264;28;20574;-69
2023/09/23 04:16:22;;;;;;;0.20;0.20;;;;;;;13.88;67.87;100644.81;5061126;28;20072;-69
2023/09/23 04:18:51;;;;;;;0.28;0.28;;;;;;;13.99;67.46;100637.38;5042605;28;20047;-68
2023/09/23 04:21:20;;;;;;;0.20;0.20;;;;;;;14.11;66.62;100639.81;5062440;28;20045;-70
2023/09/23 04:23:49;;;;;;;0.30;0.30;;;;;;;14.16;66.58;100644.50;5061980;28;20433;-70
2023/09/23 04:26:15;;;;;;;0.20;0.20;;;;;;;14.25;66.60;100647.50;5061867;28;20044;-69
2023/09/23 04:28:43;;;;;;;0.20;0.20;;;;;;;14.32;65.65;100637.03;5063157;28;20103;-69
2023/09/23 04:31:12;;;;;;;0.20;0.20;;;;;;;14.39;65.51;100656.00;5058814;28;20307;-69
2023/09/23 04:33:39;;;;;;;0.20;0.20;;;;;;;14.43;65.27;100640.56;5062324;28;20083;-69
2023/09/23 04:36:10;;;;;;;0.20;0.20;;;;;;;14.51;65.06;100656.50;5064159;28;20040;-69
2023/09/23 04:38:36;;;;;;;0.20;0.20;;;;;;;14.51;64.34;100651.00;5046368;28;20044;-70
2023/09/23 04:41:03;;;;;;;0.20;0.20;;;;;;;14.55;63.69;100649.34;5062477;28;20060;-70
2023/09/23 04:43:30;;;;;;;0.20;0.20;;;;;;;14.65;63.53;100655.91;5064042;28;20063;-70
2023/09/23 04:45:57;;;;;;;0.20;0.20;;;;;;;14.67;62.52;100659.19;5064870;28;20047;-68
2023/09/23 04:48:25;;;;;;;0.20;0.20;;;;;;;14.70;62.56;100664.97;5046613;28;20043;-69
2023/09/23 04:50:55;;;;;;;0.20;0.20;;;;;;;14.74;62.19;100665.25;5042854;28;20543;-69
2023/09/23 04:53:22;;;;;;;0.30;0.30;;;;;;;14.74;62.55;100657.00;5061967;28;20045;-72
2023/09/23 04:55:49;;;;;;;0.20;0.20;;;;;;;14.84;61.87;100669.91;5065861;28;20055;-69
2023/09/23 04:58:15;;;;;;;0.20;0.20;;;;;;;14.89;61.87;100667.94;5045686;28;20094;-69
2023/09/23 05:00:41;;;;;;;0.30;0.30;;;;;;;14.98;61.33;100659.06;5059969;28;20147;-69
2023/09/23 05:03:08;;;;;;;0.22;0.22;;;;;;;14.97;61.20;100662.94;5062015;28;20278;-69
2023/09/23 05:05:36;;;;;;;0.30;0.30;;;;;;;15.07;60.58;100668.41;5063280;28;20052;-69
2023/09/23 05:08:05;;;;;;;0.25;0.25;;;;;;;15.13;60.66;100671.94;5064028;28;20048;-69
2023/09/23 05:10:32;;;;;;;0.20;0.20;;;;;;;15.17;60.22;100665.59;5042814;28;20143;-69
2023/09/23 05:12:58;;;;;;;0.22;0.22;;;;;;;15.14;59.96;100652.41;5059568;28;20207;-70
2023/09/23 05:15:25;;;;;;;0.30;0.30;;;;;;;15.34;60.20;100666.31;5062430;28;20037;-69
2023/09/23 05:17:54;;;;;;;0.20;0.20;;;;;;;15.42;59.31;100673.97;5059669;28;20062;-69
2023/09/23 05:20:23;;;;;;;0.30;0.30;;;;;;;15.53;59.48;100678.31;5069510;28;20423;-69
2023/09/23 05:22:52;;;;;;;0.30;0.30;;;;;;;15.63;59.13;100671.06;5077627;28;20101;-69
2023/09/23 05:25:20;;;;;;;0.20;0.20;;;;;;;15.69;58.73;100678.19;5074753;28;20052;-68
2023/09/23 05:27:46;;;;;;;0.20;0.20;;;;;;;15.74;58.28;100681.72;5078323;28;20056;-69
2023/09/23 05:30:12;;;;;;;0.20;0.20;;;;;;;15.80;57.83;100670.66;5080910;28;20486;-69
2023/09/23 05:32:38;;;;;;;0.20;0.20;;;;;;;15.91;57.90;100676.94;5083012;28;20057;-69
2023/09/23 05:35:09;;;;;;;0.20;0.20;;;;;;;15.97;57.63;100679.34;5083956;28;20040;-69
2023/09/23 05:37:36;;;;;;;0.20;0.20;;;;;;;16.01;57.02;100666.63;5065457;28;20036;-69
2023/09/23 05:40:26;;;;;;;0.30;0.30;;;;;;;16.14;56.78;100672.56;5084338;28;20200;-69
2023/09/23 05:42:52;;;;;;;0.30;0.30;;;;;;;16.43;56.14;100674.50;5064283;28;20051;-70
2023/09/23 05:45:28;;;;;;;0.30;0.30;;;;;;;16.63;55.69;100678.13;5017618;28;20051;-69
2023/09/23 05:47:54;;;;;;;0.30;0.30;;;;;;;16.82;54.94;100676.22;5082247;28;20055;-69
2023/09/23 05:50:21;;;;;;;0.30;0.30;;;;;;;16.95;54.20;100677.44;5065337;28;20048;-70
2023/09/23 05:52:48;;;;;;;0.30;0.30;;;;;;;17.21;54.18;100687.34;5080224;28;20044;-70
2023/09/23 05:55:16;;;;;;;0.30;0.30;;;;;;;17.51;53.32;100683.28;5082024;28;20321;-69
2023/09/23 05:57:43;;;;;;;0.30;0.30;;;;;;;17.75;52.33;100687.91;5084326;28;20386;-69
2023/09/23 06:00:11;;;;;;;0.38;0.38;;;;;;;17.87;52.09;100681.91;5037119;28;20037;-70
2023/09/23 06:02:38;;;;;;;0.30;0.30;;;;;;;17.91;51.06;100690.41;5083645;28;20134;-70
2023/09/23 06:05:05;;;;;;;0.28;0.28;;;;;;;17.87;51.43;100687.44;5063731;28;20514;-70
2023/09/23 06:07:32;;;;;;;0.30;0.30;;;;;;;18.06;50.97;100683.81;5065376;28;20044;-70
2023/09/23 06:10:00;;;;;;;0.30;0.30;;;;;;;18.26;50.07;100689.00;5083687;28;20187;-70
2023/09/23 06:12:30;;;;;;;0.30;0.30;;;;;;;18.28;49.94;100681.22;5067313;28;20524;-68
2023/09/23 06:14:58;;;;;;;0.30;0.30;;;;;;;18.32;49.68;100681.41;5087735;28;20131;-70
2023/09/23 06:17:24;;;;;;;0.30;0.30;;;;;;;18.48;49.84;100687.47;5088086;28;20070;-71
2023/09/23 06:19:51;;;;;;;0.30;0.30;;;;;;;18.64;49.82;100687.16;5086986;28;20139;-69
2023/09/23 06:22:19;;;;;;;0.30;0.30;;;;;;;18.79;49.21;100686.03;5090074;28;20957;-71
2023/09/23 06:24:51;;;;;;;0.50;0.40;;;;;;;18.97;48.48;100687.03;5084128;28;20036;-69
2023/09/23 06:27:19;;;;;;;0.30;0.30;;;;;;;19.09;48.67;100687.34;5085158;28;20052;-70
2023/09/23 06:29:47;;;;;;;0.40;0.40;;;;;;;19.33;48.21;100686.25;5084932;28;20109;-69
2023/09/23 06:32:13;;;;;;;0.30;0.30;;;;;;;19.60;47.16;100684.53;5068812;28;20114;-70
2023/09/23 06:34:40;;;;;;;0.35;0.35;;;;;;;19.82;46.75;100689.25;5069992;28;20067;-70
2023/09/23 06:37:07;;;;;;;0.40;0.40;;;;;;;19.99;46.30;100682.19;5047728;28;20101;-70
2023/09/23 06:39:34;;;;;;;0.30;0.30;;;;;;;20.18;46.20;100684.75;5049787;28;20365;-70
2023/09/23 06:42:00;;;;;;;0.40;0.40;;;;;;;;;;5068067;28;20961;-70
2023/09/23 06:44:26;;;;;;;0.32;0.32;;;;;;;20.46;45.52;100681.78;5066131;28;20052;-69
2023/09/23 06:46:54;;;;;;;0.40;0.40;;;;;;;20.63;44.84;100683.78;5066776;28;20052;-69
2023/09/23 06:49:21;;;;;;;0.30;0.30;;;;;;;20.73;43.74;100685.47;5087684;28;20044;-73
2023/09/23 06:51:47;;;;;;;0.30;0.30;;;;;;;20.82;43.43;100688.28;5040591;28;20105;-70
2023/09/23 06:54:14;;;;;;;0.30;0.30;;;;;;;20.95;43.42;100675.44;5067378;28;20305;-69
2023/09/23 06:56:44;;;;;;;0.30;0.30;;;;;;;21.10;42.47;100676.91;5068012;28;20051;-71
2023/09/23 06:59:11;;;;;;;0.30;0.30;;;;;;;21.17;42.32;100682.81;5081372;28;20055;-69
2023/09/23 07:01:37;;;;;;;0.30;0.30;;;;;;;21.32;42.00;100675.13;5083158;28;20398;-70
2023/09/23 07:04:06;;;;;;;0.40;0.40;;;;;;;21.53;41.52;100680.84;5064868;28;20105;-69
2023/09/23 07:06:32;;;;;;;0.30;0.30;;;;;;;21.77;41.38;100683.13;5086479;28;20040;-69
2023/09/23 07:09:00;;;;;;;0.30;0.30;;;;;;;21.94;40.84;100682.28;5083743;28;20040;-68
2023/09/23 07:11:26;;;;;;;0.40;0.40;;;;;;;22.26;40.28;100686.78;5064528;28;20047;-70
2023/09/23 07:13:53;;;;;;;0.30;0.30;;;;;;;22.52;39.77;100686.72;5083346;28;20072;-70
2023/09/23 07:16:19;;;;;;;0.40;0.40;;;;;;;22.77;39.19;100678.56;5085018;28;20074;-70
2023/09/23 07:18:45;;;;;;;0.30;0.30;;;;;;;23.10;38.49;100680.66;5065158;28;20185;-70
2023/09/23 07:21:13;;;;;;;0.50;0.40;;;;;;;23.45;38.44;100677.59;5086510;28;20063;-69
2023/09/23 07:23:39;;;;;;;0.38;0.38;;;;;;;23.82;37.53;100679.72;5064327;28;20131;-70
2023/09/23 07:26:05;;;;;;;0.40;0.40;;;;;;;23.95;37.21;100686.16;5051453;28;20040;-70
2023/09/23 07:28:31;;;;;;;0.30;0.30;;;;;;;24.17;37.13;100689.75;5081858;28;20040;-70
2023/09/23 07:30:58;;;;;;;0.40;0.40;;;;;;;24.10;37.20;100687.53;5084465;28;20052;-68
2023/09/23 07:33:24;;;;;;;0.30;0.30;;;;;;;24.17;37.01;100681.38;5065448;28;20526;-70
2023/09/23 07:35:51;;;;;;;0.30;0.30;;;;;;;24.29;36.12;100680.56;5050171;28;20044;-70
2023/09/23 07:38:19;;;;;;;0.40;0.40;;;;;;;24.47;35.80;100684.75;5085523;28;20084;-70
2023/09/23 07:40:45;;;;;;;0.40;0.40;;;;;;;24.62;35.81;100679.66;5068417;28;20047;-69
2023/09/23 07:43:12;;;;;;;0.38;0.38;;;;;;;24.75;34.67;100688.88;5067721;28;20052;-69
2023/09/23 07:45:38;;;;;;;0.40;0.40;;;;;;;24.61;34.50;100686.41;5065492;28;20051;-71
2023/09/23 07:48:07;;;;;;;0.40;0.40;;;;;;;24.69;34.16;100685.50;5065268;28;20341;-70
2023/09/23 07:50:34;;;;;;;0.40;0.40;;;;;;;24.94;33.66;100684.69;5067597;28;20043;-70
2023/09/23 07:53:00;;;;;;;0.40;0.40;;;;;;;25.09;33.35;100683.94;5065878;28;20040;-70
2023/09/23 07:55:30;;;;;;;0.40;0.40;;;;;;;25.28;32.86;100676.91;5084410;28;20147;-70
2023/09/23 07:57:57;;;;;;;0.40;0.40;;;;;;;25.57;32.38;100677.78;5066023;28;20052;-71
2023/09/23 08:00:23;;;;;;;;;;;;;;;25.78;31.79;100685.97;5031462;28;20048;-70
2023/09/23 08:02:49;;;;;;;0.40;0.40;;;;;;;25.75;31.57;100684.69;5064725;28;19977;-71
2023/09/23 08:05:16;;;;;;;0.40;0.40;;;;;;;25.54;31.99;100687.69;5083487;28;20048;-71
2023/09/23 08:07:42;;;;;;;0.40;0.40;;;;;;;25.73;31.67;100691.81;5082847;28;20101;-70
2023/09/23 08:10:09;;;;;;;0.40;0.40;;;;;;;25.74;31.40;100685.03;5084056;28;20090;-70
2023/09/23 08:12:36;;;;;;;0.40;0.40;;;;;;;25.84;31.51;100689.31;5064010;28;20048;-70
2023/09/23 08:15:05;;;;;;;0.40;0.40;;;;;;;25.91;30.86;100679.13;5048225;28;20424;-70
2023/09/23 08:17:32;;;;;;;0.50;0.50;;;;;;;26.03;30.75;100685.81;5082307;28;20113;-70
2023/09/23 08:19:59;;;;;;;0.50;0.50;;;;;;;26.15;30.80;100684.94;5063715;28;20047;-69
2023/09/23 08:22:25;;;;;;;0.30;0.30;;;;;;;26.48;30.59;100687.41;5082863;28;20056;-69
2023/09/23 08:24:51;;;;;;;0.40;0.40;;;;;;;26.80;29.55;100694.97;5082280;28;20501;-70
2023/09/23 08:27:18;;;;;;;0.50;0.50;;;;;;;26.81;29.79;100674.16;5038056;28;20049;-69
2023/09/23 08:29:46;;;;;;;0.50;0.50;;;;;;;26.73;30.12;100689.19;5070147;28;20051;-70
2023/09/23 08:32:12;;;;;;;0.40;0.40;;;;;;;27.08;29.70;100674.38;5066756;28;20043;-70
2023/09/23 08:34:38;;;;;;;0.40;0.40;;;;;;;27.27;29.23;100667.16;5048685;28;20040;-70
2023/09/23 08:37:05;;;;;;;0.40;0.40;;;;;;;27.39;29.22;100671.81;5042716;28;20037;-71
2023/09/23 08:39:31;;;;;;;0.50;0.50;;;;;;;27.55;28.40;100668.94;5084801;28;20515;-70
2023/09/23 08:41:59;;;;;;;0.50;0.50;;;;;;;27.57;28.26;100661.00;5063809;28;20426;-71
2023/09/23 08:44:28;;;;;;;0.50;0.50;;;;;;;27.60;27.95;100663.84;5031438;28;20086;-70
2023/09/23 08:46:56;;;;;;;0.50;0.50;;;;;;;27.54;28.57;100670.97;5084591;28;20047;-70
2023/09/23 08:49:24;;;;;;;0.50;0.50;;;;;;;27.64;28.07;100649.09;5047158;28;20107;-70
2023/09/23 08:51:55;;;;;;;0.55;0.55;;;;;;;27.76;27.96;100659.34;5083288;28;20051;-69
2023/09/23 08:54:22;;;;;;;0.50;0.50;;;;;;;27.59;28.33;100647.38;5062540;28;20047;-70
2023/09/23 08:56:49;;;;;;;0.55;0.55;;;;;;;27.50;28.05;100660.81;5065267;28;20097;-69
2023/09/23 08:59:16;;;;;;;0.60;0.60;;;;;;;27.31;28.17;100651.22;5048692;28;20142;-69
2023/09/23 09:01:43;;;;;;;0.50;0.50;;;;;;;27.26;28.51;100651.50;5084010;28;20085;-69
2023/09/23 09:04:12;;;;;;;0.60;0.60;;;;;;;27.20;28.44;100639.75;5081201;28;20063;-69
2023/09/23 09:06:46;;;;;;;0.50;0.50;;;;;;;27.29;28.46;100645.16;5081403;28;20429;-71
2023/09/23 09:09:14;;;;;;;0.55;0.55;;;;;;;27.04;28.06;100649.06;5065095;28;20044;-69
2023/09/23 09:11:40;;;;;;;;;;;;;;;27.15;28.41;100646.47;5079193;28;20822;-68
2023/09/23 09:14:07;;;;;;;0.60;0.60;;;;;;;27.15;28.02;100640.03;5056619;28;19935;-69
2023/09/23 09:16:33;;;;;;;0.60;0.60;;;;;;;26.81;28.21;100640.50;5080942;28;20064;-70
2023/09/23 09:19:00;;;;;;;0.60;0.60;;;;;;;26.93;28.52;100635.94;5064444;28;20557;-70
2023/09/23 09:21:30;;;;;;;0.60;0.60;;;;;;;26.98;28.34;100636.47;5047908;28;20052;-70
2023/09/23 09:23:57;;;;;;;0.70;0.70;;;;;;;27.03;28.08;100643.81;5043077;28;20093;-70
2023/09/23 09:26:24;;;;;;;;;;;;;;;26.90;30.32;100657.94;5082688;28;20093;-70
2023/09/23 09:28:50;;;;;;;0.60;0.60;;;;;;;26.89;28.99;100650.72;5081184;28;19928;-68
2023/09/23 09:31:17;;;;;;;0.63;0.63;;;;;;;26.90;28.24;100657.94;5080595;28;20129;-69
2023/09/23 09:33:47;;;;;;;0.60;0.60;;;;;;;26.67;28.43;100643.78;5056223;28;20060;-69
2023/09/23 09:36:20;;;;;;;0.70;0.70;;;;;;;26.70;28.49;100642.25;5080070;28;20389;-69
2023/09/23 09:38:52;;;;;;;0.60;0.60;;;;;;;26.82;28.34;100649.72;5047135;28;20051;-69
2023/09/23 09:41:24;;;;;;;0.60;0.60;;;;;;;27.13;28.22;100642.41;5063156;28;20112;-69
2023/09/23 09:43:51;;;;;;;0.60;0.60;;;;;;;27.77;27.56;100641.28;5080004;28;20135;-68
2023/09/23 09:46:20;;;;;;;0.60;0.60;;;;;;;28.17;26.90;100654.06;5080300;28;20581;-69
2023/09/23 09:48:48;;;;;;;0.70;0.70;;;;;;;28.43;25.45;100656.13;5059046;28;20320;-68
2023/09/23 09:51:17;;;;;;;0.70;0.70;;;;;;;28.58;25.50;100645.09;5062999;28;20573;-68
2023/09/23 09:53:45;;;;;;;0.70;0.70;;;;;;;28.60;24.95;100656.78;5081209;28;20517;-68
2023/09/23 09:56:16;;;;;;;0.60;0.60;;;;;;;28.19;25.49;100642.47;5078073;28;20071;-68
2023/09/23 09:58:42;;;;;;;0.60;0.60;;;;;;;28.33;24.46;100670.81;5057335;28;20052;-69
2023/09/23 10:01:13;;;;;;;0.60;0.60;;;;;;;28.38;25.02;100630.31;5078373;28;20195;-69
2023/09/23 10:03:42;;;;;;;0.60;0.60;;;;;;;29.05;24.59;100645.78;5046888;28;20102;-69
2023/09/23 10:06:18;;;;;;;0.70;0.70;;;;;;;29.56;24.08;100683.03;5063707;28;20466;-67
2023/09/23 10:08:48;;;;;;;0.63;0.63;;;;;;;29.05;23.91;100670.31;5063909;28;20051;-69
2023/09/23 10:11:16;;;;;;;0.60;0.60;;;;;;;28.91;24.22;100657.66;5082664;28;20079;-69
2023/09/23 10:13:43;;;;;;;0.60;0.60;;;;;;;29.05;23.67;100662.66;5082438;28;20051;-70
2023/09/23 10:16:12;;;;;;;0.60;0.60;;;;;;;29.39;23.57;100650.63;5080293;28;20444;-68
2023/09/23 11:47:59;;;;;;;1.10;1.10;;;;;;;30.23;22.63;100599.59;5102686;27;20861;-68
2023/09/23 11:50:26;;;;;;;1.00;1.00;;;;;;;30.61;22.83;100605.06;5083604;28;20044;-67
2023/09/23 11:52:55;;;;;;;1.10;1.10;;;;;;;30.68;22.60;100593.84;5073656;28;20052;-70
2023/09/23 11:55:26;;;;;;;1.10;1.10;;;;;;;30.82;21.52;100618.50;5059670;28;20047;-69
2023/09/23 11:57:54;;;;;;;1.10;1.10;;;;;;;30.82;22.12;100590.28;5081355;28;20071;-69
2023/09/23 12:00:20;;;;;;;1.10;1.10;;;;;;;31.03;22.05;100587.97;5058491;28;20137;-69
2023/09/23 12:02:50;;;;;;;1.10;1.10;;;;;;;31.71;20.92;100581.72;5070390;28;20558;-69
2023/09/23 12:05:18;;;;;;;1.10;1.10;;;;;;;32.16;21.85;100569.22;5074976;28;20080;-70
2023/09/23 12:07:45;;;;;;;1.10;1.10;;;;;;;33.01;23.13;100574.31;5074316;28;20076;-68
2023/09/23 12:10:16;;;;;;;1.20;1.20;;;;;;;33.23;20.63;100589.16;5063461;28;20163;-69
2023/09/23 12:12:43;;;;;;;1.10;1.10;;;;;;;32.34;19.82;100592.66;5068277;28;20067;-69
2023/09/23 12:15:10;;;;;;;1.20;1.20;;;;;;;31.74;20.91;100595.03;5069761;28;20051;-71
2023/09/23 12:17:37;;;;;;;1.10;1.10;;;;;;;31.45;20.79;100580.88;5079215;28;20583;-71
2023/09/23 12:20:05;;;;;;;1.20;1.20;;;;;;;31.53;21.07;100568.38;5073161;28;20048;-68
2023/09/23 12:22:34;;;;;;;1.30;1.20;;;;;;;31.66;20.66;100582.91;5060142;28;20075;-68
2023/09/23 12:25:00;;;;;;;1.10;1.10;;;;;;;32.04;21.49;100578.91;5073155;28;20134;-70
2023/09/23 12:27:27;;;;;;;1.20;1.20;;;;;;;32.68;20.56;100580.88;5075807;28;20084;-70
2023/09/23 12:29:55;;;;;;;1.30;1.20;;;;;;;32.83;19.65;100575.16;5072777;28;20522;-69
2023/09/23 12:32:21;;;;;;;1.30;1.20;;;;;;;32.72;19.87;100578.03;5074494;28;20044;-70
2023/09/23 12:34:49;;;;;;;1.30;1.20;;;;;;;32.34;20.13;100558.72;5055921;28;20075;-69
2023/09/23 12:37:15;;;;;;;1.30;1.20;;;;;;;32.12;19.46;100574.88;5074376;28;20040;-68
2023/09/23 12:39:43;;;;;;;1.23;1.20;;;;;;;31.75;20.02;100591.00;5075681;28;20546;-68
2023/09/23 12:42:10;;;;;;;1.30;1.20;;;;;;;31.56;19.55;100583.72;5066723;28;20052;-68
2023/09/23 12:44:36;;;;;;;;;;;;;;;31.32;20.40;100576.78;5071498;28;20044;-68
2023/09/23 12:47:03;;;;;;;;;;;;;;;31.35;20.29;100601.41;5074342;28;19928;-68
2023/09/23 12:49:29;;;;;;;1.30;1.20;;;;;;;31.37;19.87;100576.41;5076227;28;20453;-68
2023/09/23 12:51:56;;;;;;;1.30;1.20;;;;;;;31.23;19.52;100578.00;5066992;28;20105;-67
2023/09/23 12:54:22;;;;;;;1.27;1.20;;;;;;;31.29;20.53;100571.94;5064332;28;20519;-67
2023/09/23 12:56:49;;;;;;;1.25;1.20;;;;;;;31.41;20.15;100563.91;5075273;28;20044;-69
2023/09/23 12:59:16;;;;;;;1.23;1.20;;;;;;;31.37;20.08;100587.69;5055500;28;20072;-71